Terminal Aerodrome Forecast
Issued by NWS Norman, OK

Home | Current Version | Previous Version | Text Only | Print | Product List | Glossary On
Versions: 1 2 3 4 5 6 7 8 9 10 11 12 13
000
FTUS44 KOUN 200523
TAFSPS
TAF
KSPS 200523Z 2006/2106 17013KT P6SM SCT080 BKN250
     FM201500 20015G24KT P6SM SCT050 SCT250
     FM210000 15013KT P6SM SCT250=

USA.gov is the U.S. government's official web portal to all federal, state and local government web resources and services.